createdAt,value
2018-12-08T00:00:02.431Z,1.30
2018-12-08T00:02:31.720Z,1.30
2018-12-08T00:05:01.189Z,1.50
2018-12-08T00:07:29.945Z,1.40
2018-12-08T00:09:59.770Z,1.47
2018-12-08T00:12:28.894Z,1.00
2018-12-08T00:14:57.889Z,1.27
2018-12-08T00:17:27.271Z,1.03
2018-12-08T00:19:55.892Z,1.33
2018-12-08T00:22:24.732Z,1.20
2018-12-08T00:24:53.948Z,1.27
2018-12-08T00:27:23.824Z,1.00
2018-12-08T00:29:52.354Z,1.53
2018-12-08T00:32:21.618Z,1.10
2018-12-08T00:34:50.902Z,1.20
2018-12-08T00:37:19.536Z,1.20
2018-12-08T00:39:48.069Z,1.40
2018-12-08T00:42:16.652Z,1.90
2018-12-08T00:44:45.768Z,1.23
2018-12-08T00:47:14.355Z,1.37
2018-12-08T00:49:42.976Z,1.27
2018-12-08T00:52:11.753Z,1.60
2018-12-08T00:54:40.428Z,1.80
2018-12-08T00:57:09.002Z,1.53
2018-12-08T00:59:37.550Z,1.57
2018-12-08T01:02:06.415Z,1.40
2018-12-08T01:04:35.070Z,1.43
2018-12-08T01:07:03.575Z,1.10
2018-12-08T01:09:32.161Z,1.33
2018-12-08T01:12:00.739Z,1.00
2018-12-08T01:14:29.226Z,1.60
2018-12-08T01:16:57.735Z,1.40
2018-12-08T01:19:26.307Z,1.10
2018-12-08T01:21:54.920Z,1.37
2018-12-08T01:24:23.568Z,1.17
2018-12-08T01:26:52.866Z,1.30
2018-12-08T01:29:22.046Z,1.70
2018-12-08T01:31:50.526Z,1.10
2018-12-08T01:34:19.049Z,1.33
2018-12-08T01:36:47.700Z,1.10
2018-12-08T01:39:16.635Z,1.30
2018-12-08T01:41:45.777Z,1.20
2018-12-08T01:44:14.391Z,1.30
2018-12-08T01:46:42.987Z,1.30
2018-12-08T01:49:11.553Z,1.10
2018-12-08T01:51:40.136Z,1.47
2018-12-08T01:54:09.353Z,0.90
2018-12-08T01:56:37.827Z,1.13
2018-12-08T01:59:06.775Z,1.20
2018-12-08T02:01:35.621Z,1.67
2018-12-08T02:04:04.322Z,1.43
2018-12-08T02:06:33.499Z,0.90
2018-12-08T02:09:02.092Z,1.90
2018-12-08T02:11:30.656Z,1.40
2018-12-08T02:13:59.241Z,1.33
2018-12-08T02:16:27.741Z,1.53
2018-12-08T02:18:56.783Z,1.30
2018-12-08T02:21:25.387Z,1.20
2018-12-08T02:23:54.066Z,1.20
2018-12-08T02:26:22.604Z,1.83
2018-12-08T02:28:51.178Z,1.27
2018-12-08T02:31:19.801Z,0.97
2018-12-08T02:33:48.361Z,1.47
2018-12-08T02:36:17.085Z,1.37
2018-12-08T02:38:45.680Z,1.10
2018-12-08T02:41:14.163Z,1.20
2018-12-08T02:43:42.789Z,1.60
2018-12-08T02:46:11.390Z,1.17
2018-12-08T02:48:39.908Z,1.00
2018-12-08T02:51:08.470Z,1.07
2018-12-08T02:53:37.054Z,0.80
2018-12-08T02:56:05.838Z,1.77
2018-12-08T02:58:34.415Z,1.20
2018-12-08T03:01:02.955Z,1.30
2018-12-08T03:03:32.080Z,1.27
2018-12-08T03:06:00.837Z,1.23
2018-12-08T03:08:29.334Z,1.00
2018-12-08T03:10:58.588Z,1.40
2018-12-08T03:13:27.394Z,1.30
2018-12-08T03:15:56.052Z,1.00
2018-12-08T03:18:24.566Z,1.23
2018-12-08T03:20:53.615Z,1.17
2018-12-08T03:23:22.137Z,1.10
2018-12-08T03:25:50.721Z,1.70
2018-12-08T03:28:19.217Z,1.00
2018-12-08T03:30:47.681Z,0.80
2018-12-08T03:33:16.213Z,0.97
2018-12-08T03:35:44.722Z,1.00
2018-12-08T03:38:14.223Z,0.80
2018-12-08T03:40:42.801Z,0.80
2018-12-08T03:43:11.288Z,0.70
2018-12-08T03:45:39.804Z,1.10
2018-12-08T03:48:08.396Z,0.90
2018-12-08T03:50:36.871Z,1.33
2018-12-08T03:53:05.345Z,1.13
2018-12-08T03:55:33.783Z,0.93
2018-12-08T03:58:02.242Z,0.90
2018-12-08T04:00:30.795Z,1.30
2018-12-08T04:02:59.310Z,0.90
2018-12-08T04:05:27.836Z,1.10
2018-12-08T04:07:56.353Z,1.37
2018-12-08T04:10:25.055Z,0.70
2018-12-08T04:12:53.543Z,1.07
2018-12-08T04:15:22.797Z,0.80
2018-12-08T04:17:51.386Z,1.03
2018-12-08T04:20:19.870Z,0.70
2018-12-08T04:22:48.441Z,0.60
2018-12-08T04:25:16.979Z,0.80
2018-12-08T04:27:45.457Z,0.90
2018-12-08T04:30:14.132Z,0.87
2018-12-08T04:32:42.705Z,1.00
2018-12-08T04:35:11.667Z,0.93
2018-12-08T04:37:40.147Z,0.70
2018-12-08T04:40:09.474Z,0.97
2018-12-08T04:42:37.935Z,0.70
2018-12-08T04:45:06.788Z,0.80
2018-12-08T04:47:35.709Z,0.97
2018-12-08T04:50:05.236Z,0.87
2018-12-08T04:52:33.824Z,0.70
2018-12-08T04:55:02.389Z,0.70
2018-12-08T04:57:30.855Z,0.80
2018-12-08T04:59:59.985Z,0.60
2018-12-08T05:02:28.517Z,0.63
2018-12-08T05:04:57.004Z,0.60
2018-12-08T05:07:25.626Z,0.60
2018-12-08T05:09:54.755Z,0.50
2018-12-08T05:12:23.188Z,0.60
2018-12-08T05:14:51.643Z,0.57
2018-12-08T05:17:20.317Z,0.50
2018-12-08T05:19:49.562Z,0.50
2018-12-08T05:22:18.080Z,0.40
2018-12-08T05:24:46.566Z,0.53
2018-12-08T05:27:15.760Z,0.80
2018-12-08T05:29:44.283Z,0.60
2018-12-08T05:32:13.337Z,0.53
2018-12-08T05:34:41.812Z,0.50
2018-12-08T05:37:11.101Z,0.60
2018-12-08T05:39:39.661Z,0.60
2018-12-08T05:42:08.286Z,0.57
2018-12-08T05:44:37.432Z,1.67
2018-12-08T05:47:05.962Z,0.60
2018-12-08T05:49:34.400Z,0.53
2018-12-08T05:52:02.902Z,0.77
2018-12-08T05:54:31.494Z,0.63
2018-12-08T05:56:59.977Z,0.80
2018-12-08T05:59:28.538Z,0.70
2018-12-08T06:01:58.049Z,1.00
2018-12-08T06:04:26.547Z,1.00
2018-12-08T06:06:55.040Z,0.97
2018-12-08T06:09:23.530Z,0.80
2018-12-08T06:11:52.621Z,0.87
2018-12-08T06:14:21.195Z,1.00
2018-12-08T06:16:49.720Z,0.97
2018-12-08T06:19:18.167Z,1.27
2018-12-08T06:21:46.713Z,1.00
2018-12-08T06:24:15.622Z,1.10
2018-12-08T06:27:06.952Z,1.00
2018-12-08T06:29:36.266Z,1.00
2018-12-08T06:32:05.079Z,0.70
2018-12-08T06:34:33.621Z,1.17
2018-12-08T06:37:02.202Z,0.93
2018-12-08T06:39:31.443Z,0.93
2018-12-08T06:41:59.999Z,1.13
2018-12-08T06:44:28.515Z,0.83
2018-12-08T06:46:56.974Z,1.13
2018-12-08T06:49:25.710Z,0.97
2018-12-08T06:51:55.007Z,0.80
2018-12-08T06:54:23.540Z,0.90
2018-12-08T06:56:52.060Z,1.30
2018-12-08T06:59:21.252Z,0.97
2018-12-08T07:01:49.722Z,1.10
2018-12-08T07:04:18.177Z,1.20
2018-12-08T07:06:46.747Z,1.00
2018-12-08T07:09:15.223Z,1.23
2018-12-08T07:11:43.939Z,1.00
2018-12-08T07:14:12.542Z,1.30
2018-12-08T07:16:41.062Z,0.97
2018-12-08T07:19:09.589Z,1.30
2018-12-08T07:21:38.263Z,0.97
2018-12-08T07:24:06.767Z,1.20
2018-12-08T07:26:35.346Z,1.13
2018-12-08T07:29:04.048Z,1.00
2018-12-08T07:31:33.962Z,1.10
2018-12-08T07:34:03.017Z,0.90
2018-12-08T07:36:31.583Z,1.33
2018-12-08T07:39:00.027Z,1.10
2018-12-08T07:41:29.275Z,1.10
2018-12-08T07:43:57.849Z,1.00
2018-12-08T07:46:26.879Z,1.60
2018-12-08T07:48:55.402Z,1.40
2018-12-08T07:51:23.903Z,1.03
2018-12-08T07:53:52.563Z,1.03
2018-12-08T07:56:21.195Z,1.50
2018-12-08T07:58:49.714Z,1.00
2018-12-08T08:01:18.211Z,1.17
2018-12-08T08:03:46.826Z,1.27
2018-12-08T08:06:16.069Z,1.23
2018-12-08T08:08:44.567Z,1.30
2018-12-08T08:11:13.601Z,1.33
2018-12-08T08:13:42.172Z,1.40
2018-12-08T08:16:10.827Z,0.83
2018-12-08T08:18:39.520Z,1.23
2018-12-08T08:21:08.567Z,1.30
2018-12-08T08:23:37.715Z,1.40
2018-12-08T08:26:06.236Z,1.80
2018-12-08T08:28:34.790Z,1.30
2018-12-08T08:31:03.402Z,1.70
2018-12-08T08:33:31.927Z,1.37
2018-12-08T08:36:00.473Z,2.23
2018-12-08T08:38:29.085Z,1.27
2018-12-08T08:40:57.621Z,1.37
2018-12-08T08:43:26.178Z,1.53
2018-12-08T08:45:54.736Z,1.63
2018-12-08T08:48:23.304Z,1.30
2018-12-08T08:50:51.816Z,1.40
2018-12-08T09:03:30.725Z,1.43
2018-12-08T09:06:00.131Z,1.47
2018-12-08T09:08:28.801Z,1.77
2018-12-08T09:10:57.395Z,1.43
2018-12-08T09:13:25.789Z,1.17
2018-12-08T09:15:54.443Z,1.20
2018-12-08T09:18:23.056Z,0.93
2018-12-08T09:20:51.849Z,1.20
2018-12-08T09:23:20.348Z,0.70
2018-12-08T09:25:48.847Z,1.17
2018-12-08T09:28:17.266Z,1.13
2018-12-08T09:30:45.971Z,1.20
2018-12-08T09:33:14.509Z,1.03
2018-12-08T09:35:43.323Z,0.93
2018-12-08T09:38:11.746Z,1.00
2018-12-08T09:40:40.147Z,0.80
2018-12-08T09:43:08.883Z,1.17
2018-12-08T09:45:41.727Z,1.03
2018-12-08T09:48:08.263Z,1.13
2018-12-08T09:50:39.727Z,0.80
2018-12-08T09:53:16.285Z,0.90
2018-12-08T09:55:44.963Z,1.20
2018-12-08T09:58:14.553Z,1.00
2018-12-08T10:00:43.807Z,1.03
2018-12-08T10:03:12.356Z,1.17
2018-12-08T10:05:41.159Z,1.20
2018-12-08T10:08:09.847Z,1.30
2018-12-08T10:10:38.254Z,1.37
2018-12-08T10:13:07.595Z,0.93
2018-12-08T10:15:36.098Z,1.37
2018-12-08T10:18:05.101Z,0.87
2018-12-08T10:20:33.640Z,1.10
2018-12-08T10:23:02.451Z,1.47
2018-12-08T10:25:32.049Z,1.33
2018-12-08T10:28:00.593Z,1.10
2018-12-08T10:30:29.337Z,1.00
2018-12-08T10:32:58.030Z,1.00
2018-12-08T10:35:26.658Z,1.13
2018-12-08T10:37:55.374Z,0.87
2018-12-08T10:40:24.019Z,1.30
2018-12-08T10:42:53.391Z,1.10
2018-12-08T10:45:21.956Z,1.13
2018-12-08T10:47:51.128Z,1.20
2018-12-08T10:50:20.344Z,1.10
2018-12-08T10:52:49.781Z,0.97
2018-12-08T10:55:18.443Z,1.23
2018-12-08T10:57:47.080Z,1.30
2018-12-08T11:00:21.101Z,1.60
2018-12-08T11:02:53.239Z,1.37
2018-12-08T11:05:22.172Z,1.53
2018-12-08T11:07:51.275Z,1.27
2018-12-08T11:10:20.049Z,1.80
2018-12-08T11:12:48.497Z,2.13
2018-12-08T11:15:17.098Z,1.10
2018-12-08T11:17:46.743Z,1.30
2018-12-08T11:20:15.288Z,1.93
2018-12-08T11:22:43.752Z,1.20
2018-12-08T11:25:12.296Z,1.23
2018-12-08T11:27:40.903Z,1.03
2018-12-08T11:30:09.765Z,1.03
2018-12-08T11:32:38.200Z,1.10
2018-12-08T11:35:07.433Z,1.20
2018-12-08T11:37:36.516Z,1.10
2018-12-08T11:40:05.930Z,1.00
2018-12-08T11:42:34.695Z,1.30
2018-12-08T11:45:03.328Z,1.10
2018-12-08T11:47:31.912Z,0.80
2018-12-08T11:50:00.604Z,0.90
2018-12-08T11:52:29.227Z,1.37
2018-12-08T11:54:57.703Z,1.00
2018-12-08T11:57:26.487Z,1.20
2018-12-08T11:59:55.806Z,1.20
2018-12-08T12:02:24.203Z,1.33
2018-12-08T12:04:52.802Z,0.97
2018-12-08T12:07:21.357Z,0.90
2018-12-08T12:09:50.069Z,0.97
2018-12-08T12:12:18.851Z,1.10
2018-12-08T12:14:49.010Z,1.10
2018-12-08T12:17:18.317Z,1.10
2018-12-08T12:19:46.815Z,1.10
2018-12-08T12:22:15.246Z,1.20
2018-12-08T12:24:43.823Z,1.40
2018-12-08T12:27:12.303Z,0.90
2018-12-08T12:29:40.731Z,0.90
2018-12-08T12:32:09.924Z,1.10
2018-12-08T12:34:38.586Z,0.87
2018-12-08T12:37:07.134Z,1.13
2018-12-08T12:39:35.659Z,1.10
2018-12-08T12:42:04.624Z,0.90
2018-12-08T12:44:34.414Z,0.83
2018-12-08T12:47:03.143Z,0.67
2018-12-08T12:49:32.627Z,1.03
2018-12-08T12:52:01.071Z,0.77
2018-12-08T12:54:29.854Z,0.90
2018-12-08T12:56:58.587Z,0.70
2018-12-08T12:59:27.772Z,1.00
2018-12-08T13:01:56.355Z,1.17
2018-12-08T13:04:29.892Z,1.00
2018-12-08T13:06:58.387Z,0.80
2018-12-08T13:09:27.325Z,1.17
2018-12-08T13:11:56.781Z,0.80
2018-12-08T13:14:26.088Z,0.60
2018-12-08T13:16:54.809Z,0.70
2018-12-08T13:19:23.941Z,0.77
2018-12-08T13:21:52.837Z,0.70
2018-12-08T13:24:21.537Z,0.60
2018-12-08T13:26:50.046Z,0.80
2018-12-08T13:29:18.503Z,0.50
2018-12-08T13:31:47.044Z,0.93
2018-12-08T13:34:25.264Z,0.67
2018-12-08T13:36:54.336Z,0.87
2018-12-08T13:39:23.036Z,0.60
2018-12-08T13:41:51.713Z,0.60
2018-12-08T13:44:31.808Z,0.50
2018-12-08T13:47:00.260Z,0.60
2018-12-08T13:49:28.866Z,0.80
2018-12-08T13:51:57.470Z,0.73
2018-12-08T13:54:49.221Z,0.70
2018-12-08T13:57:18.221Z,0.60
2018-12-08T13:59:53.571Z,0.87
2018-12-08T14:02:22.276Z,0.70
2018-12-08T14:04:50.832Z,0.80
2018-12-08T14:07:19.505Z,0.80
2018-12-08T14:09:47.964Z,0.63
2018-12-08T14:12:16.486Z,0.80
2018-12-08T14:14:44.994Z,0.60
2018-12-08T14:17:14.064Z,0.93
2018-12-08T14:19:43.237Z,0.60
2018-12-08T14:22:12.872Z,0.80
2018-12-08T14:24:41.957Z,0.73
2018-12-08T14:27:10.493Z,0.70
2018-12-08T14:29:39.143Z,0.60
2018-12-08T14:32:07.640Z,0.70
2018-12-08T14:34:36.790Z,0.70
2018-12-08T14:37:05.308Z,0.53
2018-12-08T14:39:33.848Z,0.90
2018-12-08T14:42:02.413Z,0.70
2018-12-08T14:44:31.101Z,0.73
2018-12-08T14:46:59.798Z,0.57
2018-12-08T14:49:28.283Z,0.67
2018-12-08T14:51:56.872Z,0.63
2018-12-08T14:54:25.558Z,0.87
2018-12-08T14:56:54.283Z,0.80
2018-12-08T14:59:23.579Z,1.00
2018-12-08T15:01:52.235Z,0.90
2018-12-08T15:04:20.729Z,1.17
2018-12-08T15:06:49.339Z,1.20
2018-12-08T15:09:17.841Z,1.00
2018-12-08T15:11:47.167Z,1.00
2018-12-08T15:14:15.701Z,1.10
2018-12-08T15:16:44.587Z,0.93
2018-12-08T15:19:13.141Z,1.00
2018-12-08T15:21:41.594Z,1.03
2018-12-08T15:24:10.274Z,1.00
2018-12-08T15:26:38.912Z,1.00
2018-12-08T15:29:07.442Z,0.93
2018-12-08T15:31:36.023Z,1.00
2018-12-08T15:34:04.535Z,0.90
2018-12-08T15:36:33.424Z,1.00
2018-12-08T15:39:02.061Z,1.20
2018-12-08T15:41:30.638Z,0.97
2018-12-08T15:43:59.948Z,1.30
2018-12-08T15:46:28.442Z,1.37
2018-12-08T15:48:57.452Z,1.13
2018-12-08T15:51:26.030Z,1.03
2018-12-08T15:53:54.543Z,1.00
2018-12-08T15:56:23.049Z,1.20
2018-12-08T15:58:51.645Z,1.13
2018-12-08T16:01:20.230Z,1.10
2018-12-08T16:03:48.789Z,1.33
2018-12-08T16:06:17.329Z,0.90
2018-12-08T16:08:45.824Z,1.20
2018-12-08T16:11:14.327Z,1.00
2018-12-08T16:13:42.908Z,0.90
2018-12-08T16:16:11.383Z,0.97
2018-12-08T16:18:39.865Z,1.20
2018-12-08T16:21:08.487Z,0.97
2018-12-08T16:23:36.974Z,0.90
2018-12-08T16:26:05.658Z,0.97
2018-12-08T16:28:34.190Z,0.77
2018-12-08T16:31:02.656Z,1.10
2018-12-08T16:33:31.227Z,1.03
2018-12-08T16:35:59.644Z,1.20
2018-12-08T16:38:28.330Z,1.10
2018-12-08T16:40:56.765Z,0.83
2018-12-08T16:43:25.615Z,0.90
2018-12-08T16:45:54.937Z,1.20
2018-12-08T16:48:23.459Z,1.10
2018-12-08T16:50:52.653Z,1.40
2018-12-08T16:53:21.997Z,1.33
2018-12-08T16:55:50.884Z,1.37
2018-12-08T16:58:19.514Z,1.07
2018-12-08T17:00:48.385Z,1.33
2018-12-08T17:03:16.947Z,1.33
2018-12-08T17:05:45.526Z,1.20
2018-12-08T17:08:14.266Z,1.30
2018-12-08T17:10:43.569Z,1.33
2018-12-08T17:13:12.215Z,0.90
2018-12-08T17:15:40.837Z,1.20
2018-12-08T17:18:09.393Z,0.90
2018-12-08T17:21:02.133Z,1.13
2018-12-08T17:23:30.916Z,0.97
2018-12-08T17:26:00.170Z,1.23
2018-12-08T17:28:29.538Z,0.87
2018-12-08T17:31:16.127Z,1.10
2018-12-08T17:33:44.628Z,1.07
2018-12-08T17:36:13.281Z,1.00
2018-12-08T17:38:41.950Z,0.90
2018-12-08T17:41:10.461Z,0.93
2018-12-08T17:43:39.122Z,1.37
2018-12-08T17:46:07.705Z,1.17
2018-12-08T17:48:36.202Z,1.40
2018-12-08T17:51:04.737Z,1.00
2018-12-08T17:53:33.799Z,1.00
2018-12-08T17:56:02.436Z,0.93
2018-12-08T17:58:31.830Z,1.10
2018-12-08T18:01:00.397Z,0.90
2018-12-08T18:03:29.007Z,1.10
2018-12-08T18:05:57.556Z,0.77
2018-12-08T18:08:26.777Z,0.97
2018-12-08T18:10:55.726Z,1.10
2018-12-08T18:13:24.184Z,0.77
2018-12-08T18:15:53.395Z,0.70
2018-12-08T18:18:21.863Z,1.90
2018-12-08T18:20:52.837Z,1.10
2018-12-08T18:23:21.607Z,0.80
2018-12-08T18:25:50.277Z,0.93
2018-12-08T18:28:18.791Z,1.10
2018-12-08T18:30:47.499Z,1.00
2018-12-08T18:33:16.056Z,1.00
2018-12-08T18:35:44.544Z,1.20
2018-12-08T18:38:13.179Z,1.30
2018-12-08T18:40:42.520Z,1.10
2018-12-08T18:43:11.051Z,1.10
2018-12-08T18:45:40.307Z,1.07
2018-12-08T18:48:09.521Z,1.33
2018-12-08T18:50:39.115Z,0.80
2018-12-08T18:53:09.222Z,1.07
2018-12-08T18:55:38.010Z,1.20
2018-12-08T18:58:06.958Z,1.10
2018-12-08T19:00:35.712Z,1.10
2018-12-08T19:03:04.309Z,1.60
2018-12-08T19:05:33.088Z,1.10
2018-12-08T19:08:02.261Z,1.10
2018-12-08T19:10:30.881Z,0.93
2018-12-08T19:12:59.692Z,1.10
2018-12-08T19:15:28.184Z,1.20
2018-12-08T19:17:56.750Z,0.87
2018-12-08T19:20:26.592Z,1.00
2018-12-08T19:22:59.708Z,1.10
2018-12-08T19:25:28.871Z,1.00
2018-12-08T19:27:57.353Z,0.83
2018-12-08T19:30:26.456Z,1.10
2018-12-08T19:32:55.177Z,1.00
2018-12-08T19:35:23.967Z,0.80
2018-12-08T19:37:52.505Z,0.80
2018-12-08T19:40:21.099Z,0.80
2018-12-08T19:42:50.052Z,1.03
2018-12-08T19:45:18.960Z,0.67
2018-12-08T19:47:47.629Z,0.60
2018-12-08T19:50:16.139Z,0.60
2018-12-08T19:52:44.648Z,0.60
2018-12-08T19:55:13.213Z,0.80
2018-12-08T19:57:41.924Z,0.60
2018-12-08T20:00:12.316Z,0.70
2018-12-08T20:02:40.883Z,1.00
2018-12-08T20:05:09.922Z,0.70
2018-12-08T20:07:38.787Z,0.77
2018-12-08T20:10:07.815Z,1.10
2018-12-08T20:12:36.483Z,1.10
2018-12-08T20:15:06.945Z,1.33
2018-12-08T20:17:35.612Z,1.50
2018-12-08T20:20:04.704Z,0.80
2018-12-08T20:22:33.216Z,1.10
2018-12-08T20:25:01.729Z,1.00
2018-12-08T20:27:30.408Z,1.00
2018-12-08T20:29:58.936Z,0.63
2018-12-08T20:32:27.621Z,1.00
2018-12-08T20:34:56.091Z,1.00
2018-12-08T20:37:24.796Z,0.97
2018-12-08T20:39:53.400Z,0.90
2018-12-08T20:42:22.256Z,0.83
2018-12-08T20:44:50.764Z,0.80
2018-12-08T20:47:19.464Z,1.00
2018-12-08T20:49:48.057Z,0.80
2018-12-08T20:52:16.930Z,0.80
2018-12-08T20:54:45.577Z,1.00
2018-12-08T20:57:14.092Z,1.20
2018-12-08T20:59:43.574Z,1.07
2018-12-08T21:02:12.724Z,0.73
2018-12-08T21:04:41.348Z,0.80
2018-12-08T21:07:09.813Z,1.10
2018-12-08T21:09:38.296Z,1.37
2018-12-08T21:12:07.849Z,1.43
2018-12-08T21:14:36.931Z,0.90
2018-12-08T21:17:05.815Z,1.00
2018-12-08T21:19:34.475Z,0.80
2018-12-08T21:22:03.489Z,0.70
2018-12-08T21:24:32.034Z,0.80
2018-12-08T21:27:01.285Z,0.80
2018-12-08T21:29:29.894Z,0.90
2018-12-08T21:31:58.444Z,0.93
2018-12-08T21:34:27.097Z,0.83
2018-12-08T21:36:55.526Z,1.00
2018-12-08T21:39:24.155Z,1.20
2018-12-08T21:41:52.678Z,0.90
2018-12-08T21:44:21.474Z,0.60
2018-12-08T21:46:50.247Z,1.13
2018-12-08T21:49:25.186Z,0.60
2018-12-08T21:51:53.817Z,0.77
2018-12-08T21:54:22.642Z,0.60
2018-12-08T21:56:51.268Z,1.00
2018-12-08T21:59:20.135Z,0.80
2018-12-08T22:01:48.809Z,0.70
2018-12-08T22:04:18.535Z,0.80
2018-12-08T22:06:47.114Z,0.70
2018-12-08T22:09:15.909Z,0.60
2018-12-08T22:11:45.164Z,1.20
2018-12-08T22:14:14.400Z,0.80
2018-12-08T22:16:42.981Z,0.77
2018-12-08T22:19:11.447Z,0.53
2018-12-08T22:21:40.021Z,0.70
2018-12-08T22:24:08.568Z,0.70
2018-12-08T22:26:37.264Z,0.97
2018-12-08T22:29:05.878Z,0.70
2018-12-08T22:31:35.038Z,0.50
2018-12-08T22:34:03.791Z,0.70
2018-12-08T22:36:32.288Z,0.60
2018-12-08T22:39:00.924Z,0.80
2018-12-08T22:41:29.933Z,0.60
2018-12-08T22:43:59.132Z,0.63
2018-12-08T22:46:28.148Z,0.83
2018-12-08T22:48:56.677Z,0.70
2018-12-08T22:51:25.229Z,0.67
2018-12-08T22:53:53.732Z,0.53
2018-12-08T22:56:22.418Z,0.80
2018-12-08T22:58:51.363Z,0.40
2018-12-08T23:01:20.397Z,0.60
2018-12-08T23:03:49.228Z,0.50
2018-12-08T23:06:17.798Z,0.40
2018-12-08T23:08:46.396Z,0.60
2018-12-08T23:11:14.824Z,0.40
2018-12-08T23:13:43.289Z,0.50
2018-12-08T23:16:12.132Z,0.50
2018-12-08T23:18:41.508Z,0.50
2018-12-08T23:21:10.018Z,0.50
2018-12-08T23:23:38.712Z,0.60
2018-12-08T23:26:08.692Z,0.40
2018-12-08T23:28:37.904Z,0.43
2018-12-08T23:31:06.520Z,0.77
2018-12-08T23:33:35.214Z,0.50
2018-12-08T23:36:04.040Z,0.40
2018-12-08T23:38:33.140Z,0.30
2018-12-08T23:41:01.673Z,0.40
2018-12-08T23:43:30.650Z,0.27
2018-12-08T23:45:59.919Z,0.30
2018-12-08T23:48:28.475Z,0.37
2018-12-08T23:50:57.117Z,0.20
2018-12-08T23:53:25.799Z,0.60
2018-12-08T23:55:54.491Z,0.30
2018-12-08T23:58:22.895Z,0.30
